Time;durP1;ratioP1;P1;durP2;ratioP2;P2;SDS_P1;SDS_P2;PMS_P1;PMS_P2;Temp;Humidity;BMP_temperature;BMP_pressure;BME280_temperature;BME280_humidity;BME280_pressure;Samples;Min_cycle;Max_cycle;Signal;HPM_P1;HPM_P2
2021/09/05 00:00:56;;;;;;;7.65;6.100001;;;;;;;10.39;71.2373;95343.69;;;;
2021/09/05 00:01:57;;;;;;;8.35;7.2;;;;;;;10.28;71.54004;95345.42;;;;
2021/09/05 00:02:57;;;;;;;8.35;7.2;;;;;;;10.28;71.54004;95345.42;;;;
2021/09/05 00:04:01;;;;;;;8.35;7.2;;;;;;;10.28;71.54004;95345.42;;;;
2021/09/05 00:05:02;;;;;;;8.35;7.2;;;;;;;10.28;71.54004;95345.42;;;;
2021/09/05 00:06:03;;;;;;;8.35;7.2;;;;;;;10.28;71.54004;95345.42;;;;
2021/09/05 00:07:03;;;;;;;8.35;7.2;;;;;;;10.28;71.54004;95345.42;;;;
2021/09/05 00:08:04;;;;;;;8.35;7.2;;;;;;;10.28;71.54004;95345.42;;;;
2021/09/05 00:09:05;;;;;;;8.35;7.2;;;;;;;10.28;71.54004;95345.42;;;;
2021/09/05 00:10:05;;;;;;;8.35;7.2;;;;;;;10.28;71.54004;95345.42;;;;
2021/09/05 00:11:07;;;;;;;8.35;7.2;;;;;;;10.28;71.54004;95345.42;;;;
2021/09/05 00:12:08;;;;;;;8.35;7.2;;;;;;;10.28;71.54004;95345.42;;;;
2021/09/05 00:13:10;;;;;;;9.099998;7.150001;;;;;;;10.19;71.80273;95344.62;;;;
2021/09/05 00:14:10;;;;;;;9.099998;7.150001;;;;;;;10.19;71.80273;95344.62;;;;
2021/09/05 00:15:10;;;;;;;9.099998;7.150001;;;;;;;10.19;71.80273;95344.62;;;;
2021/09/05 00:16:11;;;;;;;9.099998;7.150001;;;;;;;10.19;71.80273;95344.62;;;;
2021/09/05 00:17:12;;;;;;;9.099998;7.150001;;;;;;;10.19;71.80273;95344.62;;;;
2021/09/05 00:18:12;;;;;;;9.099998;7.150001;;;;;;;10.19;71.80273;95344.62;;;;
2021/09/05 00:19:13;;;;;;;9.099998;7.150001;;;;;;;10.19;71.80273;95344.62;;;;
2021/09/05 00:20:13;;;;;;;9.099998;7.150001;;;;;;;10.19;71.80273;95344.62;;;;
2021/09/05 00:21:14;;;;;;;9.099998;7.150001;;;;;;;10.19;71.80273;95344.62;;;;
2021/09/05 00:22:14;;;;;;;9.099998;7.150001;;;;;;;10.19;71.80273;95344.62;;;;
2021/09/05 00:23:15;;;;;;;8.9;6.349999;;;;;;;10.2;71.94531;95348.44;;;;
2021/09/05 00:24:15;;;;;;;8.9;6.349999;;;;;;;10.2;71.94531;95348.44;;;;
2021/09/05 00:25:16;;;;;;;8.9;6.349999;;;;;;;10.2;71.94531;95348.44;;;;
2021/09/05 00:26:16;;;;;;;8.9;6.349999;;;;;;;10.2;71.94531;95348.44;;;;
2021/09/05 00:27:17;;;;;;;8.9;6.349999;;;;;;;10.2;71.94531;95348.44;;;;
2021/09/05 00:28:18;;;;;;;8.9;6.349999;;;;;;;10.2;71.94531;95348.44;;;;
2021/09/05 00:29:18;;;;;;;8.9;6.349999;;;;;;;10.2;71.94531;95348.44;;;;
2021/09/05 00:30:19;;;;;;;8.9;6.349999;;;;;;;10.2;71.94531;95348.44;;;;
2021/09/05 00:31:19;;;;;;;8.9;6.349999;;;;;;;10.2;71.94531;95348.44;;;;
2021/09/05 00:32:20;;;;;;;8.9;6.349999;;;;;;;10.2;71.94531;95348.44;;;;
2021/09/05 00:33:20;;;;;;;8.9;6.349999;;;;;;;10.2;71.94531;95348.44;;;;
2021/09/05 00:34:21;;;;;;;7.7;6.2;;;;;;;10.08;72.11719;95343.52;;;;
2021/09/05 00:35:22;;;;;;;7.7;6.2;;;;;;;10.08;72.11719;95343.52;;;;
2021/09/05 00:36:22;;;;;;;7.7;6.2;;;;;;;10.08;72.11719;95343.52;;;;
2021/09/05 00:37:23;;;;;;;7.7;6.2;;;;;;;10.08;72.11719;95343.52;;;;
2021/09/05 00:38:24;;;;;;;7.7;6.2;;;;;;;10.08;72.11719;95343.52;;;;
2021/09/05 00:39:24;;;;;;;7.7;6.2;;;;;;;10.08;72.11719;95343.52;;;;
2021/09/05 00:40:25;;;;;;;7.7;6.2;;;;;;;10.08;72.11719;95343.52;;;;
2021/09/05 00:41:25;;;;;;;7.7;6.2;;;;;;;10.08;72.11719;95343.52;;;;
2021/09/05 00:42:26;;;;;;;7.7;6.2;;;;;;;10.08;72.11719;95343.52;;;;
2021/09/05 00:43:27;;;;;;;7.7;6.2;;;;;;;10.08;72.11719;95343.52;;;;
2021/09/05 00:44:28;;;;;;;7.400001;6.3;;;;;;;9.96;72.41797;95354.82;;;;
2021/09/05 00:45:29;;;;;;;7.400001;6.3;;;;;;;9.96;72.41797;95354.82;;;;
2021/09/05 00:46:29;;;;;;;7.400001;6.3;;;;;;;9.96;72.41797;95354.82;;;;
2021/09/05 00:47:30;;;;;;;7.400001;6.3;;;;;;;9.96;72.41797;95354.82;;;;
2021/09/05 00:48:31;;;;;;;7.400001;6.3;;;;;;;9.96;72.41797;95354.82;;;;
2021/09/05 00:49:31;;;;;;;7.400001;6.3;;;;;;;9.96;72.41797;95354.82;;;;
2021/09/05 00:50:32;;;;;;;7.400001;6.3;;;;;;;9.96;72.41797;95354.82;;;;
2021/09/05 00:51:33;;;;;;;7.400001;6.3;;;;;;;9.96;72.41797;95354.82;;;;
2021/09/05 00:52:35;;;;;;;7.400001;6.3;;;;;;;9.96;72.41797;95354.82;;;;
2021/09/05 00:53:36;;;;;;;7.400001;6.3;;;;;;;9.96;72.41797;95354.82;;;;
2021/09/05 00:54:41;;;;;;;7.400001;6.3;;;;;;;9.96;72.41797;95354.82;;;;
2021/09/05 00:55:42;;;;;;;10.7;7.45;;;;;;;9.91;72.57031;95351.03;;;;
2021/09/05 00:56:44;;;;;;;10.7;7.45;;;;;;;9.91;72.57031;95351.03;;;;
2021/09/05 00:57:45;;;;;;;10.7;7.45;;;;;;;9.91;72.57031;95351.03;;;;
2021/09/05 00:58:47;;;;;;;10.7;7.45;;;;;;;9.91;72.57031;95351.03;;;;
2021/09/05 00:59:48;;;;;;;10.7;7.45;;;;;;;9.91;72.57031;95351.03;;;;
2021/09/05 01:00:49;;;;;;;10.7;7.45;;;;;;;9.91;72.57031;95351.03;;;;
2021/09/05 01:01:49;;;;;;;10.7;7.45;;;;;;;9.91;72.57031;95351.03;;;;
2021/09/05 01:02:50;;;;;;;10.7;7.45;;;;;;;9.91;72.57031;95351.03;;;;
2021/09/05 01:03:51;;;;;;;10.7;7.45;;;;;;;9.91;72.57031;95351.03;;;;
2021/09/05 01:04:51;;;;;;;10.7;7.45;;;;;;;9.91;72.57031;95351.03;;;;
2021/09/05 01:05:52;;;;;;;8.399999;6.35;;;;;;;9.8;72.83105;95364.36;;;;
2021/09/05 01:06:53;;;;;;;8.399999;6.35;;;;;;;9.8;72.83105;95364.36;;;;
2021/09/05 01:07:54;;;;;;;8.399999;6.35;;;;;;;9.8;72.83105;95364.36;;;;
2021/09/05 01:08:54;;;;;;;8.399999;6.35;;;;;;;9.8;72.83105;95364.36;;;;
2021/09/05 01:09:56;;;;;;;8.399999;6.35;;;;;;;9.8;72.83105;95364.36;;;;
2021/09/05 01:10:57;;;;;;;8.399999;6.35;;;;;;;9.8;72.83105;95364.36;;;;
2021/09/05 01:11:58;;;;;;;8.399999;6.35;;;;;;;9.8;72.83105;95364.36;;;;
2021/09/05 01:12:59;;;;;;;8.399999;6.35;;;;;;;9.8;72.83105;95364.36;;;;
2021/09/05 01:14:01;;;;;;;8.399999;6.35;;;;;;;9.8;72.83105;95364.36;;;;
2021/09/05 01:15:04;;;;;;;8.399999;6.35;;;;;;;9.8;72.83105;95364.36;;;;
2021/09/05 01:16:06;;;;;;;8.399999;6.35;;;;;;;9.8;72.83105;95364.36;;;;
2021/09/05 01:17:20;;;;;;;8.200001;6.799999;;;;;;;9.77;73.08105;95373.44;;;;
2021/09/05 01:18:22;;;;;;;8.200001;6.799999;;;;;;;9.77;73.08105;95373.44;;;;
2021/09/05 01:19:22;;;;;;;8.200001;6.799999;;;;;;;9.77;73.08105;95373.44;;;;
2021/09/05 01:20:23;;;;;;;8.200001;6.799999;;;;;;;9.77;73.08105;95373.44;;;;
2021/09/05 01:21:24;;;;;;;8.200001;6.799999;;;;;;;9.77;73.08105;95373.44;;;;
2021/09/05 01:22:24;;;;;;;8.200001;6.799999;;;;;;;9.77;73.08105;95373.44;;;;
2021/09/05 01:23:25;;;;;;;8.200001;6.799999;;;;;;;9.77;73.08105;95373.44;;;;
2021/09/05 01:24:25;;;;;;;8.200001;6.799999;;;;;;;9.77;73.08105;95373.44;;;;
2021/09/05 01:25:26;;;;;;;8.200001;6.799999;;;;;;;9.77;73.08105;95373.44;;;;
2021/09/05 01:26:27;;;;;;;8.200001;6.799999;;;;;;;9.77;73.08105;95373.44;;;;
2021/09/05 01:27:30;;;;;;;9.199999;6.6;;;;;;;9.64;73.25293;95369.05;;;;
2021/09/05 01:28:30;;;;;;;9.199999;6.6;;;;;;;9.64;73.25293;95369.05;;;;
2021/09/05 01:29:31;;;;;;;9.199999;6.6;;;;;;;9.64;73.25293;95369.05;;;;
2021/09/05 01:30:31;;;;;;;9.199999;6.6;;;;;;;9.64;73.25293;95369.05;;;;
2021/09/05 01:31:32;;;;;;;9.199999;6.6;;;;;;;9.64;73.25293;95369.05;;;;
2021/09/05 01:32:38;;;;;;;9.199999;6.6;;;;;;;9.64;73.25293;95369.05;;;;
2021/09/05 01:33:39;;;;;;;9.199999;6.6;;;;;;;9.64;73.25293;95369.05;;;;
2021/09/05 01:34:39;;;;;;;9.199999;6.6;;;;;;;9.64;73.25293;95369.05;;;;
2021/09/05 01:35:40;;;;;;;9.199999;6.6;;;;;;;9.64;73.25293;95369.05;;;;
2021/09/05 01:36:40;;;;;;;9.199999;6.6;;;;;;;9.64;73.25293;95369.05;;;;
2021/09/05 01:37:42;;;;;;;9.199999;6.6;;;;;;;9.64;73.25293;95369.05;;;;
2021/09/05 01:38:42;;;;;;;8.799999;6.45;;;;;;;9.53;73.65039;95375.75;;;;
2021/09/05 01:39:43;;;;;;;8.799999;6.45;;;;;;;9.53;73.65039;95375.75;;;;
2021/09/05 01:40:43;;;;;;;8.799999;6.45;;;;;;;9.53;73.65039;95375.75;;;;
2021/09/05 01:41:44;;;;;;;8.799999;6.45;;;;;;;9.53;73.65039;95375.75;;;;
2021/09/05 01:42:46;;;;;;;8.799999;6.45;;;;;;;9.53;73.65039;95375.75;;;;
2021/09/05 01:43:47;;;;;;;8.799999;6.45;;;;;;;9.53;73.65039;95375.75;;;;
2021/09/05 01:44:47;;;;;;;8.799999;6.45;;;;;;;9.53;73.65039;95375.75;;;;
2021/09/05 01:45:48;;;;;;;8.799999;6.45;;;;;;;9.53;73.65039;95375.75;;;;
2021/09/05 01:46:48;;;;;;;8.799999;6.45;;;;;;;9.53;73.65039;95375.75;;;;
2021/09/05 01:47:50;;;;;;;8.799999;6.45;;;;;;;9.53;73.65039;95375.75;;;;
2021/09/05 01:48:50;;;;;;;8.799999;6.849999;;;;;;;9.46;73.92578;95383.09;;;;
2021/09/05 01:49:51;;;;;;;8.799999;6.849999;;;;;;;9.46;73.92578;95383.09;;;;
2021/09/05 01:50:51;;;;;;;8.799999;6.849999;;;;;;;9.46;73.92578;95383.09;;;;
2021/09/05 01:51:52;;;;;;;8.799999;6.849999;;;;;;;9.46;73.92578;95383.09;;;;
2021/09/05 01:52:52;;;;;;;8.799999;6.849999;;;;;;;9.46;73.92578;95383.09;;;;
2021/09/05 01:53:53;;;;;;;8.799999;6.849999;;;;;;;9.46;73.92578;95383.09;;;;
2021/09/05 01:54:53;;;;;;;8.799999;6.849999;;;;;;;9.46;73.92578;95383.09;;;;
2021/09/05 01:55:54;;;;;;;8.799999;6.849999;;;;;;;9.46;73.92578;95383.09;;;;
2021/09/05 01:56:55;;;;;;;8.799999;6.849999;;;;;;;9.46;73.92578;95383.09;;;;
2021/09/05 01:57:55;;;;;;;8.799999;6.849999;;;;;;;9.46;73.92578;95383.09;;;;
2021/09/05 01:58:56;;;;;;;8.799999;6.849999;;;;;;;9.46;73.92578;95383.09;;;;
2021/09/05 01:59:57;;;;;;;8.65;6.700001;;;;;;;9.39;74.0957;95386.78;;;;
2021/09/05 02:00:57;;;;;;;8.65;6.700001;;;;;;;9.39;74.0957;95386.78;;;;
2021/09/05 02:01:58;;;;;;;8.65;6.700001;;;;;;;9.39;74.0957;95386.78;;;;
2021/09/05 02:02:58;;;;;;;8.65;6.700001;;;;;;;9.39;74.0957;95386.78;;;;
2021/09/05 02:03:59;;;;;;;8.65;6.700001;;;;;;;9.39;74.0957;95386.78;;;;
2021/09/05 02:05:00;;;;;;;8.65;6.700001;;;;;;;9.39;74.0957;95386.78;;;;
2021/09/05 02:06:01;;;;;;;8.65;6.700001;;;;;;;9.39;74.0957;95386.78;;;;
2021/09/05 02:07:02;;;;;;;8.65;6.700001;;;;;;;9.39;74.0957;95386.78;;;;
2021/09/05 02:08:02;;;;;;;8.65;6.700001;;;;;;;9.39;74.0957;95386.78;;;;
2021/09/05 02:09:03;;;;;;;8.65;6.700001;;;;;;;9.39;74.0957;95386.78;;;;
2021/09/05 02:10:04;;;;;;;8.949999;7.000001;;;;;;;9.31;74.30371;95388.04;;;;
2021/09/05 02:11:05;;;;;;;8.949999;7.000001;;;;;;;9.31;74.30371;95388.04;;;;
2021/09/05 02:12:06;;;;;;;8.949999;7.000001;;;;;;;9.31;74.30371;95388.04;;;;
2021/09/05 02:13:07;;;;;;;8.949999;7.000001;;;;;;;9.31;74.30371;95388.04;;;;
2021/09/05 02:14:07;;;;;;;8.949999;7.000001;;;;;;;9.31;74.30371;95388.04;;;;
2021/09/05 02:15:08;;;;;;;8.949999;7.000001;;;;;;;9.31;74.30371;95388.04;;;;
2021/09/05 02:16:09;;;;;;;8.949999;7.000001;;;;;;;9.31;74.30371;95388.04;;;;
2021/09/05 02:17:10;;;;;;;8.949999;7.000001;;;;;;;9.31;74.30371;95388.04;;;;
2021/09/05 02:18:10;;;;;;;8.949999;7.000001;;;;;;;9.31;74.30371;95388.04;;;;
2021/09/05 02:19:11;;;;;;;8.949999;7.000001;;;;;;;9.31;74.30371;95388.04;;;;
2021/09/05 02:20:11;;;;;;;8.949999;7.000001;;;;;;;9.31;74.30371;95388.04;;;;
2021/09/05 02:21:12;;;;;;;9.6;6.75;;;;;;;9.22;74.56836;95396.02;;;;
2021/09/05 02:22:13;;;;;;;9.6;6.75;;;;;;;9.22;74.56836;95396.02;;;;
2021/09/05 02:23:13;;;;;;;9.6;6.75;;;;;;;9.22;74.56836;95396.02;;;;
2021/09/05 02:24:14;;;;;;;9.6;6.75;;;;;;;9.22;74.56836;95396.02;;;;
2021/09/05 02:25:14;;;;;;;9.6;6.75;;;;;;;9.22;74.56836;95396.02;;;;
2021/09/05 02:26:15;;;;;;;9.6;6.75;;;;;;;9.22;74.56836;95396.02;;;;
2021/09/05 02:27:15;;;;;;;9.6;6.75;;;;;;;9.22;74.56836;95396.02;;;;
2021/09/05 02:28:16;;;;;;;9.6;6.75;;;;;;;9.22;74.56836;95396.02;;;;
2021/09/05 02:29:17;;;;;;;9.6;6.75;;;;;;;9.22;74.56836;95396.02;;;;
2021/09/05 02:30:17;;;;;;;9.6;6.75;;;;;;;9.22;74.56836;95396.02;;;;
2021/09/05 02:31:18;;;;;;;8.749999;6.849999;;;;;;;9.16;74.79199;95395.67;;;;
2021/09/05 02:32:18;;;;;;;8.749999;6.849999;;;;;;;9.16;74.79199;95395.67;;;;
2021/09/05 02:33:19;;;;;;;8.749999;6.849999;;;;;;;9.16;74.79199;95395.67;;;;
2021/09/05 02:34:19;;;;;;;8.749999;6.849999;;;;;;;9.16;74.79199;95395.67;;;;
2021/09/05 02:35:20;;;;;;;8.749999;6.849999;;;;;;;9.16;74.79199;95395.67;;;;
2021/09/05 02:36:20;;;;;;;8.749999;6.849999;;;;;;;9.16;74.79199;95395.67;;;;
2021/09/05 02:37:21;;;;;;;8.749999;6.849999;;;;;;;9.16;74.79199;95395.67;;;;
2021/09/05 02:38:21;;;;;;;8.749999;6.849999;;;;;;;9.16;74.79199;95395.67;;;;
2021/09/05 02:39:22;;;;;;;8.749999;6.849999;;;;;;;9.16;74.79199;95395.67;;;;
2021/09/05 02:40:22;;;;;;;8.749999;6.849999;;;;;;;9.16;74.79199;95395.67;;;;
2021/09/05 02:41:23;;;;;;;8.749999;6.849999;;;;;;;9.16;74.79199;95395.67;;;;
2021/09/05 02:42:24;;;;;;;7.699999;6.799999;;;;;;;9.08;75.01172;95400.02;;;;
2021/09/05 02:43:24;;;;;;;7.699999;6.799999;;;;;;;9.08;75.01172;95400.02;;;;
2021/09/05 02:44:25;;;;;;;7.699999;6.799999;;;;;;;9.08;75.01172;95400.02;;;;
2021/09/05 02:45:25;;;;;;;7.699999;6.799999;;;;;;;9.08;75.01172;95400.02;;;;
2021/09/05 02:46:26;;;;;;;7.699999;6.799999;;;;;;;9.08;75.01172;95400.02;;;;
2021/09/05 02:47:26;;;;;;;7.699999;6.799999;;;;;;;9.08;75.01172;95400.02;;;;
2021/09/05 02:48:27;;;;;;;7.699999;6.799999;;;;;;;9.08;75.01172;95400.02;;;;
2021/09/05 02:49:28;;;;;;;7.699999;6.799999;;;;;;;9.08;75.01172;95400.02;;;;
2021/09/05 02:50:28;;;;;;;7.699999;6.799999;;;;;;;9.08;75.01172;95400.02;;;;
2021/09/05 02:51:29;;;;;;;7.699999;6.799999;;;;;;;9.08;75.01172;95400.02;;;;
2021/09/05 02:52:29;;;;;;;7.699999;6.799999;;;;;;;9.08;75.01172;95400.02;;;;
2021/09/05 02:53:30;;;;;;;8.55;6.7;;;;;;;9.08;75.10742;95406.75;;;;
2021/09/05 02:54:30;;;;;;;8.55;6.7;;;;;;;9.08;75.10742;95406.75;;;;
2021/09/05 02:55:31;;;;;;;8.55;6.7;;;;;;;9.08;75.10742;95406.75;;;;
2021/09/05 02:56:31;;;;;;;8.55;6.7;;;;;;;9.08;75.10742;95406.75;;;;
2021/09/05 02:57:32;;;;;;;8.55;6.7;;;;;;;9.08;75.10742;95406.75;;;;
2021/09/05 02:58:32;;;;;;;8.55;6.7;;;;;;;9.08;75.10742;95406.75;;;;
2021/09/05 02:59:33;;;;;;;8.55;6.7;;;;;;;9.08;75.10742;95406.75;;;;
2021/09/05 03:00:33;;;;;;;8.55;6.7;;;;;;;9.08;75.10742;95406.75;;;;
2021/09/05 03:01:34;;;;;;;8.55;6.7;;;;;;;9.08;75.10742;95406.75;;;;
2021/09/05 03:02:34;;;;;;;8.55;6.7;;;;;;;9.08;75.10742;95406.75;;;;
2021/09/05 03:03:35;;;;;;;8.9;6.849999;;;;;;;8.98;75.25098;95397.03;;;;
2021/09/05 03:04:35;;;;;;;8.9;6.849999;;;;;;;8.98;75.25098;95397.03;;;;
2021/09/05 03:05:36;;;;;;;8.9;6.849999;;;;;;;8.98;75.25098;95397.03;;;;
2021/09/05 03:06:36;;;;;;;8.9;6.849999;;;;;;;8.98;75.25098;95397.03;;;;
2021/09/05 03:07:37;;;;;;;8.9;6.849999;;;;;;;8.98;75.25098;95397.03;;;;
2021/09/05 03:08:37;;;;;;;8.9;6.849999;;;;;;;8.98;75.25098;95397.03;;;;
2021/09/05 03:09:39;;;;;;;8.9;6.849999;;;;;;;8.98;75.25098;95397.03;;;;
2021/09/05 03:10:39;;;;;;;8.9;6.849999;;;;;;;8.98;75.25098;95397.03;;;;
2021/09/05 03:11:40;;;;;;;8.9;6.849999;;;;;;;8.98;75.25098;95397.03;;;;
2021/09/05 03:12:40;;;;;;;8.9;6.849999;;;;;;;8.98;75.25098;95397.03;;;;
2021/09/05 03:13:45;;;;;;;8.9;6.849999;;;;;;;8.98;75.25098;95397.03;;;;
2021/09/05 03:14:45;;;;;;;9.8;7.299999;;;;;;;8.88;75.54297;95393.5;;;;
2021/09/05 03:15:46;;;;;;;9.8;7.299999;;;;;;;8.88;75.54297;95393.5;;;;
2021/09/05 03:16:46;;;;;;;9.8;7.299999;;;;;;;8.88;75.54297;95393.5;;;;
2021/09/05 03:17:47;;;;;;;9.8;7.299999;;;;;;;8.88;75.54297;95393.5;;;;
2021/09/05 03:18:47;;;;;;;9.8;7.299999;;;;;;;8.88;75.54297;95393.5;;;;
2021/09/05 03:19:48;;;;;;;9.8;7.299999;;;;;;;8.88;75.54297;95393.5;;;;
2021/09/05 03:20:48;;;;;;;9.8;7.299999;;;;;;;8.88;75.54297;95393.5;;;;
2021/09/05 03:21:49;;;;;;;9.8;7.299999;;;;;;;8.88;75.54297;95393.5;;;;
2021/09/05 03:22:49;;;;;;;9.8;7.299999;;;;;;;8.88;75.54297;95393.5;;;;
2021/09/05 03:23:50;;;;;;;9.8;7.299999;;;;;;;8.88;75.54297;95393.5;;;;
2021/09/05 03:24:50;;;;;;;9.15;7.6;;;;;;;8.81;75.80957;95400.27;;;;
2021/09/05 03:25:51;;;;;;;9.15;7.6;;;;;;;8.81;75.80957;95400.27;;;;
2021/09/05 03:26:52;;;;;;;9.15;7.6;;;;;;;8.81;75.80957;95400.27;;;;
2021/09/05 03:27:52;;;;;;;9.15;7.6;;;;;;;8.81;75.80957;95400.27;;;;
2021/09/05 03:28:53;;;;;;;9.15;7.6;;;;;;;8.81;75.80957;95400.27;;;;
2021/09/05 03:29:53;;;;;;;9.15;7.6;;;;;;;8.81;75.80957;95400.27;;;;
2021/09/05 03:30:54;;;;;;;9.15;7.6;;;;;;;8.81;75.80957;95400.27;;;;
2021/09/05 03:31:54;;;;;;;9.15;7.6;;;;;;;8.81;75.80957;95400.27;;;;
2021/09/05 03:32:55;;;;;;;9.15;7.6;;;;;;;8.81;75.80957;95400.27;;;;
2021/09/05 03:33:56;;;;;;;9.15;7.6;;;;;;;8.81;75.80957;95400.27;;;;
2021/09/05 03:34:56;;;;;;;9.15;7.6;;;;;;;8.81;75.80957;95400.27;;;;
2021/09/05 03:35:57;;;;;;;8.099999;6.799999;;;;;;;8.76;76.02344;95405.5;;;;
2021/09/05 03:36:57;;;;;;;8.099999;6.799999;;;;;;;8.76;76.02344;95405.5;;;;
2021/09/05 03:37:58;;;;;;;8.099999;6.799999;;;;;;;8.76;76.02344;95405.5;;;;
2021/09/05 03:38:58;;;;;;;8.099999;6.799999;;;;;;;8.76;76.02344;95405.5;;;;
2021/09/05 03:39:59;;;;;;;8.099999;6.799999;;;;;;;8.76;76.02344;95405.5;;;;
2021/09/05 03:40:59;;;;;;;8.099999;6.799999;;;;;;;8.76;76.02344;95405.5;;;;
2021/09/05 03:42:00;;;;;;;8.099999;6.799999;;;;;;;8.76;76.02344;95405.5;;;;
2021/09/05 03:43:00;;;;;;;8.099999;6.799999;;;;;;;8.76;76.02344;95405.5;;;;
2021/09/05 03:44:01;;;;;;;8.099999;6.799999;;;;;;;8.76;76.02344;95405.5;;;;
2021/09/05 03:45:02;;;;;;;8.099999;6.799999;;;;;;;8.76;76.02344;95405.5;;;;
2021/09/05 03:46:03;;;;;;;9.700001;6.799999;;;;;;;8.79;76.11523;95407.78;;;;
2021/09/05 03:47:04;;;;;;;9.700001;6.799999;;;;;;;8.79;76.11523;95407.78;;;;
2021/09/05 03:48:05;;;;;;;9.700001;6.799999;;;;;;;8.79;76.11523;95407.78;;;;
2021/09/05 03:49:05;;;;;;;9.700001;6.799999;;;;;;;8.79;76.11523;95407.78;;;;
2021/09/05 03:50:06;;;;;;;9.700001;6.799999;;;;;;;8.79;76.11523;95407.78;;;;
2021/09/05 03:51:07;;;;;;;9.700001;6.799999;;;;;;;8.79;76.11523;95407.78;;;;
2021/09/05 03:52:08;;;;;;;9.700001;6.799999;;;;;;;8.79;76.11523;95407.78;;;;
2021/09/05 03:53:09;;;;;;;9.700001;6.799999;;;;;;;8.79;76.11523;95407.78;;;;
2021/09/05 03:54:09;;;;;;;9.700001;6.799999;;;;;;;8.79;76.11523;95407.78;;;;
2021/09/05 03:55:10;;;;;;;9.700001;6.799999;;;;;;;8.79;76.11523;95407.78;;;;
2021/09/05 03:56:11;;;;;;;9.700001;6.799999;;;;;;;8.79;76.11523;95407.78;;;;
2021/09/05 03:57:11;;;;;;;10.9;7.15;;;;;;;8.7;76.28027;95419.45;;;;
2021/09/05 03:58:12;;;;;;;10.9;7.15;;;;;;;8.7;76.28027;95419.45;;;;
2021/09/05 03:59:12;;;;;;;10.9;7.15;;;;;;;8.7;76.28027;95419.45;;;;
2021/09/05 04:00:13;;;;;;;10.9;7.15;;;;;;;8.7;76.28027;95419.45;;;;
2021/09/05 04:01:14;;;;;;;10.9;7.15;;;;;;;8.7;76.28027;95419.45;;;;
2021/09/05 04:02:14;;;;;;;10.9;7.15;;;;;;;8.7;76.28027;95419.45;;;;
2021/09/05 04:03:15;;;;;;;10.9;7.15;;;;;;;8.7;76.28027;95419.45;;;;
2021/09/05 04:04:15;;;;;;;10.9;7.15;;;;;;;8.7;76.28027;95419.45;;;;
2021/09/05 04:05:16;;;;;;;10.9;7.15;;;;;;;8.7;76.28027;95419.45;;;;
2021/09/05 04:06:16;;;;;;;10.9;7.15;;;;;;;8.7;76.28027;95419.45;;;;
2021/09/05 04:07:18;;;;;;;8.749998;6.849999;;;;;;;8.6;76.61328;95406.58;;;;
2021/09/05 04:08:18;;;;;;;8.749998;6.849999;;;;;;;8.6;76.61328;95406.58;;;;
2021/09/05 04:10:08;;;;;;;8.749998;6.849999;;;;;;;8.6;76.61328;95406.58;;;;
2021/09/05 04:11:10;;;;;;;8.749998;6.849999;;;;;;;8.6;76.61328;95406.58;;;;
2021/09/05 04:12:11;;;;;;;8.749998;6.849999;;;;;;;8.6;76.61328;95406.58;;;;
2021/09/05 04:13:11;;;;;;;8.749998;6.849999;;;;;;;8.6;76.61328;95406.58;;;;
2021/09/05 04:14:12;;;;;;;8.749998;6.849999;;;;;;;8.6;76.61328;95406.58;;;;
2021/09/05 04:15:12;;;;;;;8.749998;6.849999;;;;;;;8.6;76.61328;95406.58;;;;
2021/09/05 04:16:14;;;;;;;8.749998;6.849999;;;;;;;8.6;76.61328;95406.58;;;;
2021/09/05 04:17:15;;;;;;;8.749998;6.849999;;;;;;;8.6;76.61328;95406.58;;;;
2021/09/05 04:18:15;;;;;;;9.500002;7.4;;;;;;;8.52;76.82129;95412.26;;;;
2021/09/05 04:19:16;;;;;;;9.500002;7.4;;;;;;;8.52;76.82129;95412.26;;;;
2021/09/05 04:20:16;;;;;;;9.500002;7.4;;;;;;;8.52;76.82129;95412.26;;;;
2021/09/05 04:21:17;;;;;;;9.500002;7.4;;;;;;;8.52;76.82129;95412.26;;;;
2021/09/05 04:22:17;;;;;;;9.500002;7.4;;;;;;;8.52;76.82129;95412.26;;;;
2021/09/05 04:23:18;;;;;;;9.500002;7.4;;;;;;;8.52;76.82129;95412.26;;;;
2021/09/05 04:24:18;;;;;;;9.500002;7.4;;;;;;;8.52;76.82129;95412.26;;;;
2021/09/05 04:25:19;;;;;;;9.500002;7.4;;;;;;;8.52;76.82129;95412.26;;;;
2021/09/05 04:26:20;;;;;;;9.500002;7.4;;;;;;;8.52;76.82129;95412.26;;;;
2021/09/05 04:27:21;;;;;;;9.500002;7.4;;;;;;;8.52;76.82129;95412.26;;;;
2021/09/05 04:28:21;;;;;;;9.500002;7.4;;;;;;;8.52;76.82129;95412.26;;;;
2021/09/05 04:29:22;;;;;;;8.7;7.05;;;;;;;8.53;76.9082;95419.27;;;;
2021/09/05 04:30:22;;;;;;;8.7;7.05;;;;;;;8.53;76.9082;95419.27;;;;
2021/09/05 04:31:23;;;;;;;8.7;7.05;;;;;;;8.53;76.9082;95419.27;;;;
2021/09/05 04:32:23;;;;;;;8.7;7.05;;;;;;;8.53;76.9082;95419.27;;;;
2021/09/05 04:33:24;;;;;;;8.7;7.05;;;;;;;8.53;76.9082;95419.27;;;;
2021/09/05 04:34:25;;;;;;;8.7;7.05;;;;;;;8.53;76.9082;95419.27;;;;
2021/09/05 04:35:25;;;;;;;8.7;7.05;;;;;;;8.53;76.9082;95419.27;;;;
2021/09/05 04:36:26;;;;;;;8.7;7.05;;;;;;;8.53;76.9082;95419.27;;;;
2021/09/05 04:37:26;;;;;;;8.7;7.05;;;;;;;8.53;76.9082;95419.27;;;;
2021/09/05 04:38:27;;;;;;;8.7;7.05;;;;;;;8.53;76.9082;95419.27;;;;
2021/09/05 04:39:28;;;;;;;9.799998;7.349999;;;;;;;8.45;77.02246;95429.4;;;;
2021/09/05 04:40:28;;;;;;;9.799998;7.349999;;;;;;;8.45;77.02246;95429.4;;;;
2021/09/05 04:41:29;;;;;;;9.799998;7.349999;;;;;;;8.45;77.02246;95429.4;;;;
2021/09/05 04:42:29;;;;;;;9.799998;7.349999;;;;;;;8.45;77.02246;95429.4;;;;
2021/09/05 04:43:30;;;;;;;9.799998;7.349999;;;;;;;8.45;77.02246;95429.4;;;;
2021/09/05 04:44:31;;;;;;;9.799998;7.349999;;;;;;;8.45;77.02246;95429.4;;;;
2021/09/05 04:45:31;;;;;;;9.799998;7.349999;;;;;;;8.45;77.02246;95429.4;;;;
2021/09/05 04:46:32;;;;;;;9.799998;7.349999;;;;;;;8.45;77.02246;95429.4;;;;
2021/09/05 04:47:32;;;;;;;9.799998;7.349999;;;;;;;8.45;77.02246;95429.4;;;;
2021/09/05 04:48:33;;;;;;;9.799998;7.349999;;;;;;;8.45;77.02246;95429.4;;;;
2021/09/05 04:49:33;;;;;;;9.799998;7.349999;;;;;;;8.45;77.02246;95429.4;;;;
2021/09/05 04:50:34;;;;;;;11.1;7.25;;;;;;;8.4;77.28027;95444.84;;;;
2021/09/05 04:51:34;;;;;;;11.1;7.25;;;;;;;8.4;77.28027;95444.84;;;;
2021/09/05 04:52:35;;;;;;;11.1;7.25;;;;;;;8.4;77.28027;95444.84;;;;
2021/09/05 04:53:36;;;;;;;11.1;7.25;;;;;;;8.4;77.28027;95444.84;;;;
2021/09/05 04:54:36;;;;;;;11.1;7.25;;;;;;;8.4;77.28027;95444.84;;;;
2021/09/05 04:55:37;;;;;;;11.1;7.25;;;;;;;8.4;77.28027;95444.84;;;;
2021/09/05 04:56:38;;;;;;;11.1;7.25;;;;;;;8.4;77.28027;95444.84;;;;
2021/09/05 04:57:38;;;;;;;11.1;7.25;;;;;;;8.4;77.28027;95444.84;;;;
2021/09/05 04:58:39;;;;;;;11.1;7.25;;;;;;;8.4;77.28027;95444.84;;;;
2021/09/05 04:59:39;;;;;;;11.1;7.25;;;;;;;8.4;77.28027;95444.84;;;;
2021/09/05 05:00:40;;;;;;;9.4;7.750001;;;;;;;8.51;77.38379;95453.14;;;;
2021/09/05 05:01:40;;;;;;;9.4;7.750001;;;;;;;8.51;77.38379;95453.14;;;;
2021/09/05 05:02:41;;;;;;;9.4;7.750001;;;;;;;8.51;77.38379;95453.14;;;;
2021/09/05 05:03:41;;;;;;;9.4;7.750001;;;;;;;8.51;77.38379;95453.14;;;;
2021/09/05 05:04:42;;;;;;;9.4;7.750001;;;;;;;8.51;77.38379;95453.14;;;;
2021/09/05 05:05:43;;;;;;;9.4;7.750001;;;;;;;8.51;77.38379;95453.14;;;;
2021/09/05 05:06:43;;;;;;;9.4;7.750001;;;;;;;8.51;77.38379;95453.14;;;;
2021/09/05 05:07:44;;;;;;;9.4;7.750001;;;;;;;8.51;77.38379;95453.14;;;;
2021/09/05 05:08:45;;;;;;;9.4;7.750001;;;;;;;8.51;77.38379;95453.14;;;;
2021/09/05 05:09:45;;;;;;;9.4;7.750001;;;;;;;8.51;77.38379;95453.14;;;;
2021/09/05 05:10:46;;;;;;;9.4;7.750001;;;;;;;8.51;77.38379;95453.14;;;;
2021/09/05 05:11:46;;;;;;;10.1;7.600001;;;;;;;8.58;77.51465;95473.67;;;;
2021/09/05 05:12:47;;;;;;;10.1;7.600001;;;;;;;8.58;77.51465;95473.67;;;;
2021/09/05 05:13:47;;;;;;;10.1;7.600001;;;;;;;8.58;77.51465;95473.67;;;;
2021/09/05 05:14:48;;;;;;;10.1;7.600001;;;;;;;8.58;77.51465;95473.67;;;;
2021/09/05 05:15:48;;;;;;;10.1;7.600001;;;;;;;8.58;77.51465;95473.67;;;;
2021/09/05 05:16:49;;;;;;;10.1;7.600001;;;;;;;8.58;77.51465;95473.67;;;;
2021/09/05 05:17:49;;;;;;;10.1;7.600001;;;;;;;8.58;77.51465;95473.67;;;;
2021/09/05 05:18:50;;;;;;;10.1;7.600001;;;;;;;8.58;77.51465;95473.67;;;;
2021/09/05 05:19:50;;;;;;;10.1;7.600001;;;;;;;8.58;77.51465;95473.67;;;;
2021/09/05 05:20:51;;;;;;;10.1;7.600001;;;;;;;8.58;77.51465;95473.67;;;;
2021/09/05 05:21:51;;;;;;;10.1;7.600001;;;;;;;8.58;77.51465;95473.67;;;;
2021/09/05 05:22:52;;;;;;;8.5;7.05;;;;;;;8.75;77.64063;95481.11;;;;
2021/09/05 05:23:52;;;;;;;8.5;7.05;;;;;;;8.75;77.64063;95481.11;;;;
2021/09/05 05:24:53;;;;;;;8.5;7.05;;;;;;;8.75;77.64063;95481.11;;;;
2021/09/05 05:25:53;;;;;;;8.5;7.05;;;;;;;8.75;77.64063;95481.11;;;;
2021/09/05 05:26:54;;;;;;;8.5;7.05;;;;;;;8.75;77.64063;95481.11;;;;
2021/09/05 05:27:56;;;;;;;8.5;7.05;;;;;;;8.75;77.64063;95481.11;;;;
2021/09/05 05:28:57;;;;;;;8.5;7.05;;;;;;;8.75;77.64063;95481.11;;;;
2021/09/05 05:29:58;;;;;;;8.5;7.05;;;;;;;8.75;77.64063;95481.11;;;;
2021/09/05 05:30:58;;;;;;;8.5;7.05;;;;;;;8.75;77.64063;95481.11;;;;
2021/09/05 05:31:59;;;;;;;8.5;7.05;;;;;;;8.75;77.64063;95481.11;;;;
2021/09/05 05:33:00;;;;;;;11.5;7.75;;;;;;;8.92;77.75391;95483.56;;;;